createdAt,value
2019-01-10T00:02:30.176Z,-0.10
2019-01-10T00:05:00.291Z,-0.10
2019-01-10T00:07:30.420Z,-0.10
2019-01-10T00:10:00.536Z,-0.10
2019-01-10T00:12:39.236Z,-0.10
2019-01-10T00:15:01.148Z,-0.10
2019-01-10T00:17:31.309Z,-0.10
2019-01-10T00:20:01.527Z,-0.10
2019-01-10T00:22:31.679Z,-0.10
2019-01-10T00:25:01.797Z,-0.10
2019-01-10T00:27:31.919Z,-0.10
2019-01-10T00:30:02.019Z,-0.20
2019-01-10T00:32:32.161Z,-0.20
2019-01-10T00:35:02.358Z,-0.30
2019-01-10T00:40:01.962Z,-0.30
2019-01-10T00:42:32.143Z,-0.30
2019-01-10T00:45:02.311Z,-0.30
2019-01-10T00:47:32.448Z,-0.30
2019-01-10T00:50:02.642Z,-0.30
2019-01-10T00:52:32.783Z,-0.40
2019-01-10T00:55:02.900Z,-0.40
2019-01-10T00:57:33.049Z,-0.50
2019-01-10T01:00:03.241Z,-0.50
2019-01-10T01:02:33.384Z,-0.60
2019-01-10T01:05:03.649Z,-0.60
2019-01-10T01:07:33.852Z,-0.60
2019-01-10T01:10:04.060Z,-0.60
2019-01-10T01:13:58.180Z,-0.70
2019-01-10T01:16:28.500Z,-0.70
2019-01-10T01:18:58.618Z,-0.70
2019-01-10T01:21:28.715Z,-0.70
2019-01-10T01:23:58.814Z,-0.70
2019-01-10T01:26:29.312Z,-0.80
2019-01-10T01:28:59.472Z,-0.70
2019-01-10T01:31:29.547Z,-0.80
2019-01-10T01:33:59.668Z,-0.80
2019-01-10T01:36:29.784Z,-0.80
2019-01-10T01:38:59.903Z,-0.80
2019-01-10T01:42:54.234Z,-0.90
2019-01-10T01:45:24.339Z,-0.90
2019-01-10T01:47:54.469Z,-0.90
2019-01-10T01:50:25.263Z,-0.90
2019-01-10T01:52:55.708Z,-0.90
2019-01-10T01:55:25.890Z,-0.90
2019-01-10T01:57:55.975Z,-0.90
2019-01-10T02:00:26.240Z,-0.90
2019-01-10T02:02:56.361Z,-0.90
2019-01-10T02:05:26.425Z,-0.90
2019-01-10T02:07:56.424Z,-0.90
2019-01-10T02:10:28.539Z,-0.90
2019-01-10T02:12:58.751Z,-0.90
2019-01-10T02:15:28.883Z,-0.90
2019-01-10T02:17:58.996Z,-0.90
2019-01-10T02:20:29.227Z,-1.00
2019-01-10T02:22:59.346Z,-1.00
2019-01-10T02:25:29.599Z,-0.90
2019-01-10T02:27:59.741Z,-1.00
2019-01-10T02:30:29.897Z,-1.00
2019-01-10T02:32:59.909Z,-1.00
2019-01-10T02:35:30.013Z,-1.00
2019-01-10T02:38:00.217Z,-1.00
2019-01-10T02:40:30.330Z,-0.90
2019-01-10T02:43:00.445Z,-1.00
2019-01-10T02:45:30.578Z,-0.90
2019-01-10T02:48:01.031Z,-1.00
2019-01-10T02:50:31.164Z,-0.90
2019-01-10T02:53:01.369Z,-0.90
2019-01-10T02:56:55.539Z,-1.00
2019-01-10T02:59:25.640Z,-0.90
2019-01-10T03:01:55.752Z,-0.90
2019-01-10T03:04:25.906Z,-0.90
2019-01-10T03:06:56.117Z,-0.90
2019-01-10T03:09:26.225Z,-0.80
2019-01-10T03:11:56.308Z,-0.80
2019-01-10T03:14:26.392Z,-0.80
2019-01-10T03:16:56.493Z,-0.80
2019-01-10T03:19:26.604Z,-0.80
2019-01-10T03:21:56.741Z,-0.80
2019-01-10T03:24:26.817Z,-0.80
2019-01-10T03:26:56.894Z,-0.80
2019-01-10T03:29:27.024Z,-0.80
2019-01-10T03:31:57.229Z,-0.80
2019-01-10T03:34:27.364Z,-0.80
2019-01-10T03:36:57.516Z,-0.70
2019-01-10T03:39:27.636Z,-0.70
2019-01-10T03:41:57.773Z,-0.70
2019-01-10T03:44:34.098Z,-0.70
2019-01-10T03:46:58.035Z,-0.80
2019-01-10T03:49:28.112Z,-0.80
2019-01-10T03:51:58.238Z,-0.80
2019-01-10T03:54:28.332Z,-0.90
2019-01-10T03:56:58.452Z,-0.90
2019-01-10T03:59:28.559Z,-0.90
2019-01-10T04:01:58.708Z,-0.90
2019-01-10T04:04:28.812Z,-0.90
2019-01-10T04:06:58.903Z,-0.90
2019-01-10T04:09:29.827Z,-0.90
2019-01-10T04:11:59.947Z,-0.90
2019-01-10T04:14:30.061Z,-0.90
2019-01-10T04:17:00.180Z,-0.90
2019-01-10T04:19:30.259Z,-1.00
2019-01-10T04:22:00.429Z,-1.00
2019-01-10T04:24:30.537Z,-1.00
2019-01-10T04:27:00.672Z,-1.00
2019-01-10T04:29:30.743Z,-1.00
2019-01-10T04:32:00.847Z,-1.00
2019-01-10T04:34:30.923Z,-1.00
2019-01-10T04:37:01.116Z,-1.00
2019-01-10T04:39:31.231Z,-1.00
2019-01-10T04:42:01.397Z,-1.00
2019-01-10T04:44:31.816Z,-0.90
2019-01-10T04:47:01.965Z,-1.00
2019-01-10T04:49:32.052Z,-0.90
2019-01-10T04:52:02.103Z,-0.90
2019-01-10T04:54:32.208Z,-0.90
2019-01-10T04:57:02.394Z,-0.90
2019-01-10T04:59:32.514Z,-0.90
2019-01-10T05:02:02.638Z,-0.90
2019-01-10T05:04:32.997Z,-0.80
2019-01-10T05:07:03.182Z,-0.80
2019-01-10T05:09:33.251Z,-0.80
2019-01-10T05:12:03.447Z,-0.80
2019-01-10T05:14:33.596Z,-0.80
2019-01-10T05:17:03.719Z,-0.80
2019-01-10T05:19:33.715Z,-0.80
2019-01-10T05:22:03.866Z,-0.80
2019-01-10T05:27:03.465Z,-0.70
2019-01-10T05:29:33.584Z,-0.70
2019-01-10T05:32:03.737Z,-0.70
2019-01-10T05:34:33.808Z,-0.70
2019-01-10T05:37:05.924Z,-0.70
2019-01-10T05:39:34.096Z,-0.70
2019-01-10T05:42:04.327Z,-0.70
2019-01-10T05:44:34.456Z,-0.60
2019-01-10T05:47:04.586Z,-0.60
2019-01-10T05:49:34.702Z,-0.60
2019-01-10T05:52:05.249Z,-0.60
2019-01-10T05:54:35.360Z,-0.60
2019-01-10T05:57:05.488Z,-0.60
2019-01-10T05:59:35.852Z,-0.60
2019-01-10T06:02:05.992Z,-0.60
2019-01-10T06:04:36.105Z,-0.60
2019-01-10T06:07:06.626Z,-0.60
2019-01-10T06:09:36.673Z,-0.50
2019-01-10T06:12:06.848Z,-0.50
2019-01-10T06:14:36.877Z,-0.50
2019-01-10T06:17:06.979Z,-0.50
2019-01-10T06:19:37.067Z,-0.40
2019-01-10T06:22:07.230Z,-0.40
2019-01-10T06:27:06.732Z,-0.40
2019-01-10T06:29:36.808Z,-0.40
2019-01-10T06:32:06.941Z,-0.40
2019-01-10T06:34:37.063Z,-0.40
2019-01-10T06:37:07.188Z,-0.40
2019-01-10T06:39:37.194Z,-0.30
2019-01-10T06:42:07.328Z,-0.30
2019-01-10T06:44:44.496Z,-0.30
2019-01-10T06:47:07.613Z,-0.20
2019-01-10T06:49:37.699Z,-0.20
2019-01-10T06:52:07.875Z,-0.20
2019-01-10T06:54:37.966Z,-0.20
2019-01-10T06:57:08.068Z,-0.20
2019-01-10T06:59:38.176Z,-0.10
2019-01-10T07:02:08.318Z,-0.10
2019-01-10T07:04:38.320Z,-0.10
2019-01-10T07:07:08.451Z,0.00
2019-01-10T07:09:38.564Z,0.00
2019-01-10T07:12:08.702Z,0.00
2019-01-10T07:14:38.808Z,0.10
2019-01-10T07:17:08.948Z,0.10
2019-01-10T07:19:45.478Z,0.00
2019-01-10T07:22:17.059Z,0.10
2019-01-10T07:24:52.068Z,0.10
2019-01-10T07:27:22.203Z,0.10
2019-01-10T07:29:56.438Z,0.10
2019-01-10T07:32:26.693Z,0.10
2019-01-10T07:35:01.938Z,0.10
2019-01-10T07:37:32.146Z,0.10
2019-01-10T07:40:02.203Z,0.10
2019-01-10T07:42:35.188Z,0.10
2019-01-10T07:45:10.725Z,0.20
2019-01-10T07:47:45.754Z,0.10
2019-01-10T07:50:16.298Z,0.20
2019-01-10T07:52:46.635Z,0.20
2019-01-10T07:55:16.723Z,0.10
2019-01-10T07:57:46.860Z,0.10
2019-01-10T08:00:18.006Z,0.20
2019-01-10T08:02:48.661Z,0.20
2019-01-10T08:05:18.813Z,0.10
2019-01-10T08:07:48.955Z,0.20
2019-01-10T08:10:19.074Z,0.20
2019-01-10T08:12:49.296Z,0.20
2019-01-10T08:15:21.019Z,0.20
2019-01-10T08:17:51.459Z,0.20
2019-01-10T08:20:21.985Z,0.30
2019-01-10T08:22:52.515Z,0.30
2019-01-10T08:25:22.786Z,0.30
2019-01-10T08:27:53.266Z,0.30
2019-01-10T08:30:25.226Z,0.30
2019-01-10T08:32:55.716Z,0.30
2019-01-10T08:36:51.790Z,0.20
2019-01-10T08:39:22.254Z,0.20
2019-01-10T08:41:52.871Z,0.10
2019-01-10T08:44:23.420Z,0.10
2019-01-10T08:46:53.701Z,0.10
2019-01-10T08:49:24.100Z,0.00
2019-01-10T08:54:24.095Z,0.00
2019-01-10T08:56:54.520Z,0.00
2019-01-10T08:59:24.875Z,-0.10
2019-01-10T09:01:55.407Z,-0.10
2019-01-10T09:04:27.779Z,-0.20
2019-01-10T09:06:58.343Z,-0.20
2019-01-10T09:09:29.032Z,-0.20
2019-01-10T09:11:59.391Z,-0.20
2019-01-10T09:14:29.841Z,-0.20
2019-01-10T09:17:00.141Z,-0.20
2019-01-10T09:19:30.466Z,-0.20
2019-01-10T09:22:00.531Z,-0.20
2019-01-10T09:24:30.842Z,-0.20
2019-01-10T09:27:01.273Z,-0.20
2019-01-10T09:29:31.761Z,-0.20
2019-01-10T09:32:02.031Z,-0.20
2019-01-10T09:34:32.418Z,-0.20
2019-01-10T09:37:03.894Z,-0.20
2019-01-10T09:39:33.087Z,-0.10
2019-01-10T09:42:03.285Z,-0.10
2019-01-10T09:44:33.484Z,-0.10
2019-01-10T09:47:03.875Z,-0.10
2019-01-10T09:49:34.199Z,-0.10
2019-01-10T09:52:04.729Z,-0.10
2019-01-10T09:54:35.128Z,-0.20
2019-01-10T09:57:05.673Z,-0.20
2019-01-10T09:59:36.168Z,-0.20
2019-01-10T10:02:06.368Z,-0.20
2019-01-10T10:04:36.783Z,-0.20
2019-01-10T10:07:06.939Z,-0.20
2019-01-10T10:09:37.462Z,-0.20
2019-01-10T10:12:07.632Z,-0.20
2019-01-10T10:14:37.976Z,-0.20
2019-01-10T10:17:08.416Z,-0.20
2019-01-10T10:22:08.365Z,-0.30
2019-01-10T10:24:38.607Z,-0.30
2019-01-10T10:27:09.015Z,-0.30
2019-01-10T10:29:39.721Z,-0.20
2019-01-10T10:32:09.936Z,-0.20
2019-01-10T10:34:40.236Z,-0.20
2019-01-10T10:37:10.624Z,-0.20
2019-01-10T10:39:41.061Z,-0.20
2019-01-10T10:42:11.466Z,-0.20
2019-01-10T10:44:41.768Z,-0.20
2019-01-10T10:47:12.125Z,-0.20
2019-01-10T10:49:42.442Z,-0.20
2019-01-10T10:52:12.660Z,-0.20
2019-01-10T10:57:12.710Z,-0.20
2019-01-10T10:59:42.975Z,-0.20
2019-01-10T11:02:13.388Z,-0.20
2019-01-10T11:04:43.775Z,-0.20
2019-01-10T11:07:14.125Z,-0.20
2019-01-10T11:09:44.453Z,-0.20
2019-01-10T11:12:14.776Z,-0.10
2019-01-10T11:14:48.277Z,-0.10
2019-01-10T11:17:15.588Z,-0.10
2019-01-10T11:19:45.911Z,-0.10
2019-01-10T11:22:16.247Z,-0.10
2019-01-10T11:24:46.647Z,-0.10
2019-01-10T11:27:16.937Z,-0.10
2019-01-10T11:29:47.700Z,-0.10
2019-01-10T11:32:18.056Z,-0.20
2019-01-10T11:34:48.435Z,-0.20
2019-01-10T11:37:18.768Z,-0.20
2019-01-10T11:39:49.076Z,-0.20
2019-01-10T11:42:19.609Z,-0.20
2019-01-10T11:47:19.384Z,-0.20
2019-01-10T11:49:49.733Z,-0.20
2019-01-10T11:52:20.000Z,-0.20
2019-01-10T11:54:50.295Z,-0.20
2019-01-10T11:57:21.292Z,-0.20
2019-01-10T11:59:51.663Z,-0.30
2019-01-10T12:02:21.984Z,-0.30
2019-01-10T12:04:52.307Z,-0.30
2019-01-10T12:07:22.616Z,-0.30
2019-01-10T12:09:53.200Z,-0.20
2019-01-10T12:12:23.513Z,-0.20
2019-01-10T12:14:53.766Z,-0.20
2019-01-10T12:17:24.024Z,-0.20
2019-01-10T12:19:54.399Z,-0.20
2019-01-10T12:22:24.739Z,-0.20
2019-01-10T12:24:55.040Z,-0.20
2019-01-10T12:27:25.355Z,-0.20
2019-01-10T12:29:55.955Z,-0.20
2019-01-10T12:32:26.339Z,-0.20
2019-01-10T12:34:56.472Z,-0.20
2019-01-10T12:37:26.724Z,-0.20
2019-01-10T12:39:56.953Z,-0.20
2019-01-10T12:42:27.275Z,-0.20
2019-01-10T12:44:57.704Z,-0.20
2019-01-10T12:47:28.125Z,-0.10
2019-01-10T12:49:58.505Z,-0.10
2019-01-10T12:52:35.060Z,-0.10
2019-01-10T12:54:59.007Z,-0.10
2019-01-10T12:57:29.271Z,0.00
2019-01-10T12:59:59.507Z,0.10
2019-01-10T13:02:29.817Z,0.10
2019-01-10T13:05:00.231Z,0.10
2019-01-10T13:07:30.508Z,0.10
2019-01-10T13:10:00.759Z,0.10
2019-01-10T13:12:31.012Z,0.10
2019-01-10T13:15:01.361Z,0.10
2019-01-10T13:17:31.660Z,0.10
2019-01-10T13:20:02.275Z,0.10
2019-01-10T13:22:32.618Z,0.10
2019-01-10T13:25:02.852Z,0.10
2019-01-10T13:27:33.979Z,0.10
2019-01-10T13:30:05.351Z,0.00
2019-01-10T13:32:35.578Z,0.10
2019-01-10T13:35:06.416Z,0.00
2019-01-10T13:37:36.667Z,0.00
2019-01-10T13:40:07.647Z,0.00
2019-01-10T13:42:37.872Z,-0.10
2019-01-10T13:45:09.283Z,-0.10
2019-01-10T13:47:39.755Z,-0.10
2019-01-10T13:50:13.435Z,-0.10
2019-01-10T13:55:13.809Z,-0.10
2019-01-10T13:57:44.220Z,0.00
2019-01-10T14:00:18.592Z,-0.10
2019-01-10T14:02:48.959Z,-0.10
2019-01-10T14:05:19.448Z,-0.10
2019-01-10T14:07:49.988Z,0.00
2019-01-10T14:10:20.283Z,-0.10
2019-01-10T14:12:50.456Z,0.00
2019-01-10T14:15:24.261Z,-0.10
2019-01-10T14:17:54.649Z,0.00
2019-01-10T14:20:24.971Z,-0.10
2019-01-10T14:30:28.577Z,-0.10
2019-01-10T14:32:59.184Z,-0.10
2019-01-10T14:35:29.730Z,-0.10
2019-01-10T14:38:00.139Z,-0.10
2019-01-10T14:40:30.852Z,-0.10
2019-01-10T14:43:01.137Z,-0.10
2019-01-10T14:45:31.783Z,-0.10
2019-01-10T14:48:02.253Z,-0.10
2019-01-10T14:50:32.464Z,-0.10
2019-01-10T14:53:02.717Z,-0.10
2019-01-10T14:55:32.900Z,-0.10
2019-01-10T14:58:03.320Z,-0.10
2019-01-10T15:00:33.900Z,-0.10
2019-01-10T15:03:04.288Z,-0.10
2019-01-10T15:05:34.865Z,-0.10
2019-01-10T15:08:05.167Z,-0.20
2019-01-10T15:10:35.948Z,-0.20
2019-01-10T15:13:06.330Z,-0.20
2019-01-10T15:15:36.679Z,-0.30
2019-01-10T15:18:07.303Z,-0.50
2019-01-10T15:20:37.637Z,-0.60
2019-01-10T15:23:08.064Z,-0.70
2019-01-10T15:25:38.388Z,-0.80
2019-01-10T15:28:08.724Z,-0.80
2019-01-10T15:30:39.209Z,-0.90
2019-01-10T15:33:09.532Z,-0.90
2019-01-10T15:35:39.876Z,-0.80
2019-01-10T15:38:13.877Z,-0.80
2019-01-10T15:40:40.551Z,-0.80
2019-01-10T15:43:11.063Z,-0.80
2019-01-10T15:45:41.730Z,-0.80
2019-01-10T15:48:12.089Z,-0.80
2019-01-10T15:50:42.392Z,-1.00
2019-01-10T15:53:12.740Z,-1.00
2019-01-10T15:55:43.073Z,-0.90
2019-01-10T15:58:13.287Z,-0.90
2019-01-10T16:00:43.564Z,-0.80
2019-01-10T16:03:14.004Z,-0.70
2019-01-10T16:05:44.478Z,-0.70
2019-01-10T16:08:14.721Z,-0.70
2019-01-10T16:10:45.256Z,-0.70
2019-01-10T16:13:15.536Z,-0.70
2019-01-10T16:15:45.862Z,-0.70
2019-01-10T16:18:16.183Z,-0.70
2019-01-10T16:20:46.506Z,-0.70
2019-01-10T16:23:16.691Z,-0.60
2019-01-10T16:25:47.094Z,-0.60
2019-01-10T16:28:17.414Z,-0.60
2019-01-10T16:30:47.868Z,-0.60
2019-01-10T16:33:18.168Z,-0.60
2019-01-10T16:35:48.537Z,-0.60
2019-01-10T16:38:18.819Z,-0.60
2019-01-10T16:40:49.249Z,-0.60
2019-01-10T16:43:19.561Z,-0.60
2019-01-10T16:45:49.950Z,-0.70
2019-01-10T16:51:53.848Z,-0.60
2019-01-10T16:54:24.104Z,-0.70
2019-01-10T16:56:55.292Z,-0.60
2019-01-10T16:59:25.468Z,-0.70
2019-01-10T17:01:55.920Z,-0.70
2019-01-10T17:04:26.123Z,-0.70
2019-01-10T17:06:56.395Z,-0.70
2019-01-10T17:09:26.736Z,-0.70
2019-01-10T17:11:57.045Z,-0.70
2019-01-10T17:14:27.312Z,-0.70
2019-01-10T17:16:57.637Z,-0.70
2019-01-10T17:19:27.847Z,-0.70
2019-01-10T17:21:58.257Z,-0.70
2019-01-10T17:24:28.504Z,-0.70
2019-01-10T17:26:58.832Z,-0.70
2019-01-10T17:29:29.056Z,-0.70
2019-01-10T17:31:59.728Z,-0.70
2019-01-10T17:34:30.051Z,-0.70
2019-01-10T17:37:00.400Z,-0.70
2019-01-10T17:39:30.680Z,-0.70
2019-01-10T17:42:01.080Z,-0.70
2019-01-10T17:44:31.402Z,-0.70
2019-01-10T17:47:01.680Z,-0.70
2019-01-10T17:49:32.019Z,-0.70
2019-01-10T17:52:02.502Z,-0.70
2019-01-10T17:54:32.698Z,-0.70
2019-01-10T17:57:02.995Z,-0.70
2019-01-10T17:59:33.287Z,-0.70
2019-01-10T18:02:03.591Z,-0.70
2019-01-10T18:04:33.716Z,-0.70
2019-01-10T18:07:04.132Z,-0.70
2019-01-10T18:09:34.441Z,-0.70
2019-01-10T18:12:04.782Z,-0.70
2019-01-10T18:14:35.027Z,-0.70
2019-01-10T18:17:05.396Z,-0.80
2019-01-10T18:19:35.717Z,-0.70
2019-01-10T18:22:06.209Z,-0.70
2019-01-10T18:24:36.620Z,-0.80
2019-01-10T18:27:07.008Z,-0.80
2019-01-10T18:29:37.755Z,-0.80
2019-01-10T18:32:07.840Z,-0.70
2019-01-10T18:37:07.944Z,-0.80
2019-01-10T18:39:38.192Z,-0.80
2019-01-10T18:42:08.576Z,-0.80
2019-01-10T18:44:38.770Z,-0.80
2019-01-10T18:47:09.056Z,-0.80
2019-01-10T18:49:39.389Z,-0.80
2019-01-10T18:52:09.679Z,-0.80
2019-01-10T18:54:39.996Z,-0.80
2019-01-10T18:57:10.508Z,-0.80
2019-01-10T18:59:40.781Z,-0.90
2019-01-10T19:02:11.163Z,-0.80
2019-01-10T19:04:41.392Z,-0.90
2019-01-10T19:07:11.788Z,-0.90
2019-01-10T19:09:42.044Z,-0.80
2019-01-10T19:12:12.410Z,-0.80
2019-01-10T19:14:42.763Z,-0.80
2019-01-10T19:17:13.115Z,-0.80
2019-01-10T19:19:43.510Z,-0.80
2019-01-10T19:22:13.775Z,-0.80
2019-01-10T19:24:44.105Z,-0.80
2019-01-10T19:27:14.412Z,-0.80
2019-01-10T19:29:44.608Z,-0.80
2019-01-10T19:32:16.359Z,-0.80
2019-01-10T19:34:46.612Z,-0.80
2019-01-10T19:37:17.055Z,-0.80
2019-01-10T19:39:47.272Z,-0.70
2019-01-10T19:42:17.599Z,-0.70
2019-01-10T19:44:48.007Z,-0.70
2019-01-10T19:47:18.302Z,-0.80
2019-01-10T19:49:48.597Z,-0.80
2019-01-10T19:52:18.879Z,-0.80
2019-01-10T19:54:49.101Z,-0.80
2019-01-10T19:57:19.340Z,-0.70
2019-01-10T19:59:49.582Z,-0.80
2019-01-10T20:04:49.447Z,-0.70
2019-01-10T20:07:20.166Z,-0.70
2019-01-10T20:09:52.466Z,-0.70
2019-01-10T20:12:22.800Z,-0.70
2019-01-10T20:14:52.967Z,-0.70
2019-01-10T20:17:23.300Z,-0.70
2019-01-10T20:19:53.573Z,-0.70
2019-01-10T20:22:23.829Z,-0.70
2019-01-10T20:24:54.151Z,-0.70
2019-01-10T20:27:24.588Z,-0.70
2019-01-10T20:29:54.904Z,-0.70
2019-01-10T20:34:55.712Z,-0.60
2019-01-10T20:37:25.959Z,-0.60
2019-01-10T20:39:56.279Z,-0.70
2019-01-10T20:42:26.679Z,-0.70
2019-01-10T20:44:56.883Z,-0.60
2019-01-10T20:47:27.195Z,-0.60
2019-01-10T20:49:57.635Z,-0.70
2019-01-10T20:52:28.373Z,-0.70
2019-01-10T20:54:58.639Z,-0.70
2019-01-10T20:57:29.117Z,-0.80
2019-01-10T20:59:59.365Z,-0.80
2019-01-10T21:02:29.653Z,-0.80
2019-01-10T21:04:59.917Z,-0.80
2019-01-10T21:07:30.330Z,-0.80
2019-01-10T21:10:00.678Z,-0.80
2019-01-10T21:12:31.139Z,-0.80
2019-01-10T21:15:01.392Z,-0.70
2019-01-10T21:17:31.708Z,-0.80
2019-01-10T21:20:01.897Z,-0.80
2019-01-10T21:22:32.124Z,-0.80
2019-01-10T21:25:02.446Z,-0.80
2019-01-10T21:30:02.487Z,-0.80
2019-01-10T21:35:03.698Z,-0.90
2019-01-10T21:37:34.064Z,-0.90
2019-01-10T21:42:34.097Z,-0.80
2019-01-10T21:45:04.762Z,-0.80
2019-01-10T21:47:35.212Z,-0.80
2019-01-10T21:50:07.137Z,-0.70
2019-01-10T21:52:37.292Z,-0.70
2019-01-10T21:55:09.043Z,-0.70
2019-01-10T21:57:39.656Z,-0.70
2019-01-10T22:00:14.687Z,-0.70
2019-01-10T22:02:45.064Z,-0.70
2019-01-10T22:05:15.511Z,-0.70
2019-01-10T22:07:45.993Z,-0.80
2019-01-10T22:10:16.356Z,-0.80
2019-01-10T22:12:47.183Z,-0.70
2019-01-10T22:15:17.727Z,-0.80
2019-01-10T22:17:48.033Z,-0.80
2019-01-10T22:20:18.762Z,-0.80
2019-01-10T22:22:49.084Z,-0.80
2019-01-10T22:25:19.760Z,-0.80
2019-01-10T22:27:50.188Z,-0.80
2019-01-10T22:30:22.106Z,-0.70
2019-01-10T22:32:52.569Z,-0.80
2019-01-10T22:35:23.590Z,-0.80
2019-01-10T22:37:54.000Z,-0.80
2019-01-10T22:40:25.184Z,-0.80
2019-01-10T22:42:55.289Z,-0.80
2019-01-10T22:45:25.474Z,-0.80
2019-01-10T22:47:55.659Z,-0.80
2019-01-10T22:50:25.841Z,-0.80
2019-01-10T22:52:55.966Z,-0.80
2019-01-10T22:55:26.222Z,-0.80
2019-01-10T22:57:56.427Z,-0.80
2019-01-10T23:00:44.688Z,-0.80
2019-01-10T23:03:15.013Z,-0.70
2019-01-10T23:05:45.536Z,-0.70
2019-01-10T23:08:16.076Z,-0.70
2019-01-10T23:10:46.677Z,-0.70
2019-01-10T23:13:17.087Z,-0.70
2019-01-10T23:15:47.626Z,-0.60
2019-01-10T23:18:17.987Z,-0.70
2019-01-10T23:20:54.964Z,-0.70
2019-01-10T23:23:25.451Z,-0.70
2019-01-10T23:25:56.020Z,-0.70
2019-01-10T23:28:26.632Z,-0.80
2019-01-10T23:30:58.885Z,-0.70
2019-01-10T23:33:29.755Z,-0.70
2019-01-10T23:36:01.775Z,-0.80
2019-01-10T23:38:32.240Z,-0.90
2019-01-10T23:41:02.823Z,-0.90
2019-01-10T23:43:33.203Z,-0.90
2019-01-10T23:46:03.755Z,-0.90
2019-01-10T23:48:34.122Z,-0.90
2019-01-10T23:51:04.542Z,-0.90
2019-01-10T23:53:34.947Z,-0.90
2019-01-10T23:56:05.360Z,-0.80
2019-01-10T23:58:35.910Z,-0.80
